Observation data for Seagraves on 02/11/2018      Previous  Date  Next       Current Mesonet Observations  Soil Data  Daily Summary Page  Observations in Plain Language
KSGV 110600Z 05011G19KT M03/M11 A2995 RMK A01 T10341110  RH  057%=      5-min Rain = 0
KSGV 110605Z 05011G16KT M04/M11 A2995 RMK A01 T10361110  RH  057%=      5-min Rain = 0
KSGV 110610Z 05011G19KT M04/M11 A2995 RMK A01 T10371110  RH  057%=      5-min Rain = 0
KSGV 110615Z 05011G17KT M04/M11 A2995 RMK A01 T10371110  RH  058%=      5-min Rain = 0
KSGV 110620Z 05012G18KT M04/M11 A2995 RMK A01 T10381110  RH  058%=      5-min Rain = 0
KSGV 110625Z 05010G15KT M04/M11 A2995 RMK A01 T10381110  RH  058%=      5-min Rain = 0
KSGV 110630Z 05010G16KT M04/M11 A2995 RMK A01 T10381109  RH  058%=      5-min Rain = 0
KSGV 110635Z 05011G16KT M04/M11 A2995 RMK A01 T10381109  RH  059%=      5-min Rain = 0
KSGV 110640Z 05012G17KT M04/M11 A2996 RMK A01 T10391110  RH  059%=      5-min Rain = 0
KSGV 110645Z 05012KT M04/M11 A2996 RMK A01 T10411111  RH  059%=      5-min Rain = 0
KSGV 110650Z 05013G19KT M04/M11 A2996 RMK A01 T10421112  RH  059%=      5-min Rain = 0
KSGV 110655Z 05013G18KT M04/M11 A2996 RMK A01 T10431113  RH  059%=      5-min Rain = 0
KSGV 110700Z 04009G15KT M04/M11 A2997 RMK A01 T10441113  RH  059%=      5-min Rain = 0
KSGV 110705Z 04012G18KT M05/M11 A2998 RMK A01 T10451114  RH  059%=      5-min Rain = 0
KSGV 110710Z 05011G18KT M05/M12 A2998 RMK A01 T10471115  RH  060%=      5-min Rain = 0
KSGV 110715Z 04010G17KT M05/M12 A2998 RMK A01 T10481115  RH  060%=      5-min Rain = 0
KSGV 110720Z 04012G18KT M05/M12 A2998 RMK A01 T10501116  RH  060%=      5-min Rain = 0
KSGV 110725Z 04013G19KT M05/M12 A2998 RMK A01 T10511117  RH  061%=      5-min Rain = 0
KSGV 110730Z 04011G18KT M05/M12 A2999 RMK A01 T10531118  RH  061%=      5-min Rain = 0
KSGV 110735Z 04011G18KT M06/M12 A2999 RMK A01 T10551119  RH  061%=      5-min Rain = 0
KSGV 110740Z 04014G20KT M06/M12 A2999 RMK A01 T10561120  RH  061%=      5-min Rain = 0
KSGV 110745Z 03016G23KT M06/M12 A30 RMK A01 T10571122  RH  061%=      5-min Rain = 0
KSGV 110750Z 03012G18KT M06/M12 A30 RMK A01 T10591123  RH  062%=      5-min Rain = 0
KSGV 110755Z 04009G14KT M06/M12 A30 RMK A01 T10601123  RH  062%=      5-min Rain = 0
KSGV 110800Z 03010G15KT M06/M12 A3001 RMK A01 T10611123  RH  062%=      5-min Rain = 0
KSGV 110805Z 03009G14KT M06/M12 A3001 RMK A01 T10621123  RH  063%=      5-min Rain = 0
KSGV 110810Z 03011G16KT M06/M12 A3001 RMK A01 T10621123  RH  063%=      5-min Rain = 0
KSGV 110815Z 03013G18KT M06/M12 A3001 RMK A01 T10631123  RH  063%=      5-min Rain = 0
KSGV 110820Z 03011G16KT M06/M12 A3001 RMK A01 T10641123  RH  064%=      5-min Rain = 0
KSGV 110825Z 03011KT M07/M12 A3001 RMK A01 T10651124  RH  064%=      5-min Rain = 0
KSGV 110830Z 02011G16KT M07/M12 A3002 RMK A01 T10651123  RH  064%=      5-min Rain = 0
KSGV 110835Z 02010G16KT M07/M12 A3002 RMK A01 T10661123  RH  065%=      5-min Rain = 0
KSGV 110840Z 02012G19KT M07/M12 A3002 RMK A01 T10671123  RH  065%=      5-min Rain = 0
KSGV 110845Z 02013KT M07/M12 A3003 RMK A01 T10681123  RH  065%=      5-min Rain = 0
KSGV 110850Z 02011KT M07/M12 A3003 RMK A01 T10681124  RH  065%=      5-min Rain = 0
KSGV 110855Z 02011G16KT M07/M12 A3004 RMK A01 T10671124  RH  065%=      5-min Rain = 0
KSGV 110900Z 02011G16KT M07/M12 A3003 RMK A01 T10671124  RH  065%=      5-min Rain = 0
KSGV 110905Z 02010G15KT M07/M12 A3003 RMK A01 T10671124  RH  065%=      5-min Rain = 0
KSGV 110910Z 01012G17KT M07/M12 A3004 RMK A01 T10671124  RH  065%=      5-min Rain = 0
KSGV 110915Z 01013G20KT M07/M13 A3004 RMK A01 T10671125  RH  064%=      5-min Rain = 0
KSGV 110920Z 02013G20KT M07/M13 A3003 RMK A01 T10671125  RH  064%=      5-min Rain = 0
KSGV 110925Z 02014G21KT M07/M13 A3003 RMK A01 T10671126  RH  064%=      5-min Rain = 0
KSGV 110930Z 02013G18KT M07/M13 A3003 RMK A01 T10681126  RH  064%=      5-min Rain = 0
KSGV 110935Z 01011G20KT M07/M13 A3004 RMK A01 T10681126  RH  064%=      5-min Rain = 0
KSGV 110940Z 02013G19KT M07/M13 A3004 RMK A01 T10681127  RH  064%=      5-min Rain = 0
KSGV 110945Z 02014G21KT M07/M13 A3004 RMK A01 T10681127  RH  064%=      5-min Rain = 0
KSGV 110950Z 01013G18KT M07/M13 A3004 RMK A01 T10691128  RH  064%=      5-min Rain = 0
KSGV 110955Z 02012KT M07/M13 A3004 RMK A01 T10691128  RH  064%=      5-min Rain = 0
KSGV 111000Z 01013G18KT M07/M13 A3004 RMK A01 T10681129  RH  063%=      5-min Rain = 0
KSGV 111005Z 01015G20KT M07/M13 A3005 RMK A01 T10691130  RH  063%=      5-min Rain = 0
KSGV 111010Z 02014G20KT M07/M13 A3005 RMK A01 T10701131  RH  063%=      5-min Rain = 0
KSGV 111015Z 01013G19KT M07/M13 A3005 RMK A01 T10691130  RH  063%=      5-min Rain = 0
KSGV 111020Z 01014G21KT M07/M13 A3005 RMK A01 T10711131  RH  063%=      5-min Rain = 0
KSGV 111025Z 01015KT M07/M13 A3005 RMK A01 T10721131  RH  063%=      5-min Rain = 0
KSGV 111030Z 01014G19KT M07/M13 A3006 RMK A01 T10721132  RH  063%=      5-min Rain = 0
KSGV 111035Z 01015G20KT M07/M13 A3006 RMK A01 T10731132  RH  064%=      5-min Rain = 0
KSGV 111040Z 01014G19KT M07/M13 A3006 RMK A01 T10731132  RH  064%=      5-min Rain = 0
KSGV 111045Z 01014G19KT M07/M13 A3006 RMK A01 T10731132  RH  063%=      5-min Rain = 0
KSGV 111050Z 02015KT M07/M13 A3006 RMK A01 T10741132  RH  064%=      5-min Rain = 0
KSGV 111055Z 01014KT M07/M13 A3007 RMK A01 T10741132  RH  064%=      5-min Rain = 0
KSGV 111100Z 01013G18KT M07/M13 A3007 RMK A01 T10741132  RH  064%=      5-min Rain = 0
KSGV 111105Z 01015G20KT M08/M13 A3007 RMK A01 T10751132  RH  064%=      5-min Rain = 0
KSGV 111110Z 02012KT M08/M13 A3007 RMK A01 T10761132  RH  065%=      5-min Rain = 0
KSGV 111115Z 01013KT M08/M13 A3007 RMK A01 T10771132  RH  065%=      5-min Rain = 0
KSGV 111120Z 01012KT M08/M13 A3008 RMK A01 T10781133  RH  066%=      5-min Rain = 0
KSGV 111125Z 01011KT M08/M13 A3008 RMK A01 T10791133  RH  066%=      5-min Rain = 0
KSGV 111130Z 01011G16KT M08/M13 A3008 RMK A01 T10791133  RH  066%=      5-min Rain = 0
KSGV 111135Z 00010G15KT M08/M13 A3008 RMK A01 T10801133  RH  066%=      5-min Rain = 0
KSGV 111140Z 00011KT M08/M13 A3009 RMK A01 T10801134  RH  066%=      5-min Rain = 0
KSGV 111145Z 00011KT M08/M13 A3009 RMK A01 T10801134  RH  066%=      5-min Rain = 0
KSGV 111150Z 36010KT M08/M13 A301 RMK A01 T10801134  RH  066%=      5-min Rain = 0
KSGV 111155Z 01009KT M08/M13 A301 RMK A01 T10791133  RH  066%=      5-min Rain = 0
KSGV 111200Z 00009KT M08/M13 A3011 RMK A01 T10791134  RH  066%=      5-min Rain = 0
KSGV 111205Z 00009KT M08/M13 A3011 RMK A01 T10801134  RH  066%=      5-min Rain = 0
KSGV 111210Z 00009KT M08/M13 A3011 RMK A01 T10811134  RH  066%=      5-min Rain = 0
KSGV 111215Z 01007KT M08/M13 A3012 RMK A01 T10801134  RH  066%=      5-min Rain = 0
KSGV 111220Z 00008KT M08/M13 A3012 RMK A01 T10801134  RH  066%=      5-min Rain = 0
KSGV 111225Z 01007KT M08/M13 A3012 RMK A01 T10791134  RH  066%=      5-min Rain = 0
KSGV 111230Z 35008KT M08/M13 A3013 RMK A01 T10781134  RH  066%=      5-min Rain = 0
KSGV 111235Z 35010KT M08/M13 A3013 RMK A01 T10791134  RH  065%=      5-min Rain = 0
KSGV 111240Z 36010KT M08/M14 A3013 RMK A01 T10791135  RH  065%=      5-min Rain = 0
KSGV 111245Z 36008KT M08/M14 A3014 RMK A01 T10801135  RH  066%=      5-min Rain = 0
KSGV 111250Z 35008KT M08/M14 A3014 RMK A01 T10811135  RH  066%=      5-min Rain = 0
KSGV 111255Z 35008KT M08/M14 A3014 RMK A01 T10821135  RH  066%=      5-min Rain = 0
KSGV 111300Z 35008KT M08/M14 A3014 RMK A01 T10821135  RH  067%=      5-min Rain = 0
KSGV 111305Z 35007KT M08/M14 A3014 RMK A01 T10821135  RH  067%=      5-min Rain = 0
KSGV 111310Z 35008KT M08/M13 A3015 RMK A01 T10821134  RH  067%=      5-min Rain = 0
KSGV 111315Z 34008KT M08/M13 A3015 RMK A01 T10821134  RH  067%=      5-min Rain = 0
KSGV 111320Z 35008KT M08/M13 A3015 RMK A01 T10831134  RH  067%=      5-min Rain = 0
KSGV 111325Z 35007KT M08/M13 A3015 RMK A01 T10821134  RH  067%=      5-min Rain = 0
KSGV 111330Z 35008KT M08/M13 A3016 RMK A01 T10811134  RH  067%=      5-min Rain = 0
KSGV 111335Z 35009KT M08/M13 A3017 RMK A01 T10801133  RH  067%=      5-min Rain = 0
KSGV 111340Z 35008KT M08/M13 A3017 RMK A01 T10801133  RH  066%=      5-min Rain = 0
KSGV 111345Z 35008KT M08/M13 A3017 RMK A01 T10791133  RH  066%=      5-min Rain = 0
KSGV 111350Z 35008KT M08/M13 A3017 RMK A01 T10781133  RH  066%=      5-min Rain = 0
KSGV 111355Z 35008KT M08/M13 A3017 RMK A01 T10771133  RH  065%=      5-min Rain = 0
KSGV 111400Z 35008KT M08/M13 A3018 RMK A01 T10761132  RH  065%=      5-min Rain = 0
KSGV 111405Z 35008KT M08/M13 A3018 RMK A01 T10751132  RH  065%=      5-min Rain = 0
KSGV 111410Z 35007KT M07/M13 A3018 RMK A01 T10721130  RH  064%=      5-min Rain = 0
KSGV 111415Z 35008KT M07/M13 A3019 RMK A01 T10691129  RH  063%=      5-min Rain = 0
KSGV 111420Z 34009KT M07/M13 A3019 RMK A01 T10671129  RH  062%=      5-min Rain = 0
KSGV 111425Z 34008KT M07/M13 A3019 RMK A01 T10661129  RH  062%=      5-min Rain = 0
KSGV 111430Z 35009KT M07/M13 A3019 RMK A01 T10651128  RH  062%=      5-min Rain = 0
KSGV 111435Z 35009KT M06/M13 A3019 RMK A01 T10611127  RH  061%=      5-min Rain = 0
KSGV 111440Z 35010KT M06/M13 A3019 RMK A01 T10581126  RH  059%=      5-min Rain = 0
KSGV 111445Z 34010KT M06/M13 A302 RMK A01 T10571126  RH  059%=      5-min Rain = 0
KSGV 111450Z 34010KT M06/M13 A302 RMK A01 T10581126  RH  059%=      5-min Rain = 0
KSGV 111455Z 34010KT M06/M13 A302 RMK A01 T10581126  RH  060%=      5-min Rain = 0
KSGV 111500Z 34010KT M06/M12 A302 RMK A01 T10551124  RH  059%=      5-min Rain = 0
KSGV 111505Z 34011KT M05/M12 A302 RMK A01 T10541124  RH  059%=      5-min Rain = 0
KSGV 111510Z 35010KT M05/M12 A302 RMK A01 T10541123  RH  059%=      5-min Rain = 0
KSGV 111515Z 35011KT M05/M12 A302 RMK A01 T10521123  RH  058%=      5-min Rain = 0
KSGV 111520Z 35012KT M05/M12 A302 RMK A01 T10511122  RH  058%=      5-min Rain = 0
KSGV 111525Z 35011G16KT M05/M12 A3021 RMK A01 T10501122  RH  058%=      5-min Rain = 0
KSGV 111530Z 35012KT M05/M12 A3021 RMK A01 T10491121  RH  058%=      5-min Rain = 0
KSGV 111535Z 35011KT M05/M12 A3021 RMK A01 T10491121  RH  058%=      5-min Rain = 0
KSGV 111540Z 35011KT M05/M12 A3022 RMK A01 T10471120  RH  058%=      5-min Rain = 0
KSGV 111545Z 35011G16KT M05/M12 A3022 RMK A01 T10461119  RH  057%=      5-min Rain = 0
KSGV 111550Z 00011KT M05/M12 A3022 RMK A01 T10451118  RH  057%=      5-min Rain = 0
KSGV 111555Z 36011KT M04/M12 A3022 RMK A01 T10441118  RH  057%=      5-min Rain = 0
KSGV 111600Z 35011G16KT M04/M12 A3022 RMK A01 T10431117  RH  057%=      5-min Rain = 0
KSGV 111605Z 36013KT M04/M12 A3022 RMK A01 T10431117  RH  057%=      5-min Rain = 0
KSGV 111610Z 00011KT M04/M12 A3023 RMK A01 T10411116  RH  057%=      5-min Rain = 0
KSGV 111615Z 36010KT M04/M11 A3023 RMK A01 T10381114  RH  056%=      5-min Rain = 0
KSGV 111620Z 35011KT M04/M11 A3022 RMK A01 T10351114  RH  055%=      5-min Rain = 0
KSGV 111625Z 35011KT M03/M11 A3022 RMK A01 T10341114  RH  055%=      5-min Rain = 0
KSGV 111630Z 00010KT M03/M11 A3022 RMK A01 T10321114  RH  054%=      5-min Rain = 0
KSGV 111635Z 36010KT M03/M11 A3022 RMK A01 T10321113  RH  054%=      5-min Rain = 0
KSGV 111640Z 35012KT M03/M11 A3022 RMK A01 T10311113  RH  054%=      5-min Rain = 0
KSGV 111645Z 35013KT M03/M11 A3022 RMK A01 T10291113  RH  053%=      5-min Rain = 0
KSGV 111650Z 36012KT M03/M11 A3022 RMK A01 T10301113  RH  054%=      5-min Rain = 0
KSGV 111655Z 01010KT M03/M11 A3022 RMK A01 T10281111  RH  053%=      5-min Rain = 0
KSGV 111700Z 00013G18KT M03/M11 A3023 RMK A01 T10251111  RH  052%=      5-min Rain = 0
KSGV 111705Z 00013G18KT M02/M11 A3023 RMK A01 T10221110  RH  052%=      5-min Rain = 0
KSGV 111710Z 00011KT M02/M11 A3022 RMK A01 T10191108  RH  051%=      5-min Rain = 0
KSGV 111715Z 01012G19KT M02/M11 A3023 RMK A01 T10151109  RH  049%=      5-min Rain = 0
KSGV 111720Z 01011G16KT M02/M11 A3023 RMK A01 T10181109  RH  050%=      5-min Rain = 0
KSGV 111725Z 01011KT M02/M11 A3022 RMK A01 T10161109  RH  050%=      5-min Rain = 0
KSGV 111730Z 01013KT M02/M11 A3022 RMK A01 T10171109  RH  050%=      5-min Rain = 0
KSGV 111735Z 00013KT M01/M11 A3022 RMK A01 T10141108  RH  050%=      5-min Rain = 0
KSGV 111740Z 36011KT M01/M11 A3022 RMK A01 T10131108  RH  049%=      5-min Rain = 0
KSGV 111745Z 01011G17KT M01/M11 A3022 RMK A01 T10111107  RH  049%=      5-min Rain = 0
KSGV 111750Z 36011KT M01/M11 A3022 RMK A01 T10091107  RH  048%=      5-min Rain = 0
KSGV 111755Z 00011KT M01/M11 A3022 RMK A01 T10051106  RH  047%=      5-min Rain = 0
KSGV 111800Z 00011KT M00/M11 A3022 RMK A01 T10041105  RH  047%=      5-min Rain = 0
KSGV 111805Z 00010KT M00/M11 A3022 RMK A01 T10011105  RH  046%=      5-min Rain = 0
KSGV 111810Z 02012KT M00/M11 A3021 RMK A01 T10011107  RH  045%=      5-min Rain = 0
KSGV 111815Z 01010KT M00/M11 A3021 RMK A01 T10011107  RH  045%=      5-min Rain = 0
KSGV 111820Z 01010KT 00/M11 A3021 RMK A01 T00011107  RH  045%=      5-min Rain = 0
KSGV 111825Z 01011KT 00/M11 A3021 RMK A01 T00031108  RH  043%=      5-min Rain = 0
KSGV 111830Z 02011KT 00/M11 A3021 RMK A01 T00021110  RH  044%=      5-min Rain = 0
KSGV 111835Z 02011KT 00/M11 A3021 RMK A01 T00031109  RH  044%=      5-min Rain = 0
KSGV 111840Z 00009KT 00/M11 A302 RMK A01 T00031110  RH  043%=      5-min Rain = 0
KSGV 111845Z 00010KT 00/M11 A302 RMK A01 T00031110  RH  043%=      5-min Rain = 0
KSGV 111850Z 01009KT 00/M11 A302 RMK A01 T00031109  RH  043%=      5-min Rain = 0
KSGV 111855Z 02006KT 01/M11 A302 RMK A01 T00051109  RH  043%=      5-min Rain = 0
KSGV 111900Z 03006KT 01/M11 A302 RMK A01 T00081107  RH  042%=      5-min Rain = 0
KSGV 111905Z 02007KT 01/M11 A3019 RMK A01 T00111108  RH  041%=      5-min Rain = 0
KSGV 111910Z 04006KT 01/M11 A3019 RMK A01 T00111107  RH  041%=      5-min Rain = 0
KSGV 111915Z 02005KT 01/M11 A3019 RMK A01 T00121107  RH  041%=      5-min Rain = 0
KSGV 111920Z 02007KT 02/M11 A3018 RMK A01 T00151106  RH  041%=      5-min Rain = 0
KSGV 111925Z 02007G12KT 02/M11 A3018 RMK A01 T00191105  RH  040%=      5-min Rain = 0
KSGV 111930Z 03008KT 02/M11 A3018 RMK A01 T00181105  RH  040%=      5-min Rain = 0
KSGV 111935Z 04007KT 02/M10 A3018 RMK A01 T00221103  RH  040%=      5-min Rain = 0
KSGV 111940Z 04006KT 02/M10 A3018 RMK A01 T00241103  RH  039%=      5-min Rain = 0
KSGV 111945Z 04006KT 03/M10 A3017 RMK A01 T00291101  RH  038%=      5-min Rain = 0
KSGV 111950Z 02006KT 03/M10 A3017 RMK A01 T00341102  RH  037%=      5-min Rain = 0
KSGV 111955Z 04006KT 03/M10 A3017 RMK A01 T00321102  RH  037%=      5-min Rain = 0
KSGV 112000Z 04004KT 03/M10 A3016 RMK A01 T00331102  RH  037%=      5-min Rain = 0
KSGV 112005Z 02006KT 04/M10 A3016 RMK A01 T00361100  RH  037%=      5-min Rain = 0
KSGV 112010Z 02004KT 04/M10 A3016 RMK A01 T00401101  RH  036%=      5-min Rain = 0
KSGV 112015Z 01006G11KT 04/M10 A3015 RMK A01 T00411101  RH  035%=      5-min Rain = 0
KSGV 112020Z 03003G9KT 04/M10 A3015 RMK A01 T00421101  RH  035%=      5-min Rain = 0
KSGV 112025Z 02005G10KT 04/M10 A3015 RMK A01 T00431101  RH  035%=      5-min Rain = 0
KSGV 112030Z 02007KT 05/M10 A3015 RMK A01 T00461101  RH  034%=      5-min Rain = 0
KSGV 112035Z 02007KT 05/M10 A3014 RMK A01 T00481101  RH  033%=      5-min Rain = 0
KSGV 112040Z 05004KT 05/M10 A3014 RMK A01 T00501102  RH  033%=      5-min Rain = 0
KSGV 112045Z 35006KT 05/M10 A3014 RMK A01 T00491102  RH  033%=      5-min Rain = 0
KSGV 112050Z 32005KT 05/M10 A3014 RMK A01 T00481103  RH  033%=      5-min Rain = 0
KSGV 112055Z 31002KT 05/M10 A3014 RMK A01 T00511101  RH  033%=      5-min Rain = 0
KSGV 112100Z 00005KT 06/M10 A3013 RMK A01 T00561101  RH  032%=      5-min Rain = 0
KSGV 112105Z 02003KT 06/M10 A3014 RMK A01 T00581101  RH  031%=      5-min Rain = 0
KSGV 112110Z 09003KT 06/M10 A3013 RMK A01 T00591101  RH  031%=      5-min Rain = 0
KSGV 112115Z 03006KT 06/M10 A3013 RMK A01 T00611101  RH  031%=      5-min Rain = 0
KSGV 112120Z 36004KT 06/M10 A3013 RMK A01 T00601103  RH  030%=      5-min Rain = 0
KSGV 112125Z 03003KT 06/M10 A3014 RMK A01 T00591104  RH  030%=      5-min Rain = 0
KSGV 112130Z 02003KT 06/M10 A3013 RMK A01 T00611103  RH  030%=      5-min Rain = 0
KSGV 112135Z 01004G9KT 06/M10 A3013 RMK A01 T00601103  RH  030%=      5-min Rain = 0
KSGV 112140Z 05005KT 06/M10 A3013 RMK A01 T00591103  RH  030%=      5-min Rain = 0
KSGV 112145Z 10002KT 06/M10 A3013 RMK A01 T00621102  RH  030%=      5-min Rain = 0
KSGV 112150Z 08003G8KT 06/M10 A3013 RMK A01 T00631103  RH  030%=      5-min Rain = 0
KSGV 112155Z 10004KT 06/M10 A3013 RMK A01 T00621104  RH  030%=      5-min Rain = 0
KSGV 112200Z 11005KT 06/M11 A3013 RMK A01 T00621105  RH  029%=      5-min Rain = 0
KSGV 112205Z 12003KT 06/M11 A3014 RMK A01 T00631105  RH  029%=      5-min Rain = 0
KSGV 112210Z 06004KT 06/M10 A3014 RMK A01 T00641104  RH  029%=      5-min Rain = 0
KSGV 112215Z 08003KT 07/M11 A3014 RMK A01 T00651105  RH  029%=      5-min Rain = 0
KSGV 112220Z 07003KT 06/M11 A3014 RMK A01 T00611105  RH  030%=      5-min Rain = 0
KSGV 112225Z 11002KT 06/M10 A3014 RMK A01 T00611104  RH  030%=      5-min Rain = 0
KSGV 112230Z 08001KT 07/M10 A3014 RMK A01 T00661102  RH  029%=      5-min Rain = 0
KSGV 112235Z 12002KT 07/M10 A3014 RMK A01 T00681104  RH  028%=      5-min Rain = 0
KSGV 112240Z 13003KT 07/M10 A3014 RMK A01 T00671104  RH  029%=      5-min Rain = 0
KSGV 112245Z 11004KT 07/M10 A3013 RMK A01 T00651104  RH  029%=      5-min Rain = 0
KSGV 112250Z 12003KT 07/M10 A3013 RMK A01 T00651104  RH  029%=      5-min Rain = 0
KSGV 112255Z 14003KT 07/M11 A3013 RMK A01 T00671105  RH  028%=      5-min Rain = 0
KSGV 112300Z 06003KT 07/M11 A3014 RMK A01 T00661106  RH  028%=      5-min Rain = 0
KSGV 112305Z 06003KT 06/M11 A3014 RMK A01 T00631107  RH  029%=      5-min Rain = 0
KSGV 112310Z 08003KT 06/M11 A3014 RMK A01 T00621108  RH  029%=      5-min Rain = 0
KSGV 112315Z 07003KT 06/M11 A3014 RMK A01 T00591108  RH  029%=      5-min Rain = 0
KSGV 112320Z 06003KT 06/M11 A3014 RMK A01 T00581109  RH  029%=      5-min Rain = 0
KSGV 112325Z 06003KT 06/M11 A3014 RMK A01 T00581108  RH  030%=      5-min Rain = 0
KSGV 112330Z 07002KT 06/M11 A3014 RMK A01 T00581109  RH  030%=      5-min Rain = 0
KSGV 112335Z 06003KT 06/M11 A3014 RMK A01 T00571110  RH  029%=      5-min Rain = 0
KSGV 112340Z 07003KT 06/M11 A3014 RMK A01 T00581109  RH  029%=      5-min Rain = 0
KSGV 112345Z 06002KT 06/M11 A3015 RMK A01 T00561110  RH  029%=      5-min Rain = 0
KSGV 112350Z 07004KT 06/M11 A3014 RMK A01 T00551110  RH  030%=      5-min Rain = 0
KSGV 112355Z 07004KT 05/M11 A3014 RMK A01 T00531111  RH  030%=      5-min Rain = 0
KSGV 120000Z 07003KT 05/M11 A3014 RMK A01 T00501112  RH  030%=      5-min Rain = 0
KSGV 120005Z 05002KT 05/M11 A3015 RMK A01 T00491112  RH  030%=      5-min Rain = 0
KSGV 120010Z 08002KT 05/M11 A3015 RMK A01 T00481112  RH  031%=      5-min Rain = 0
KSGV 120015Z 08003KT 05/M11 A3015 RMK A01 T00461113  RH  031%=      5-min Rain = 0
KSGV 120020Z 08003KT 04/M11 A3015 RMK A01 T00441113  RH  031%=      5-min Rain = 0
KSGV 120025Z 09002KT 04/M11 A3015 RMK A01 T00431113  RH  032%=      5-min Rain = 0
KSGV 120030Z 08002KT 04/M11 A3016 RMK A01 T00411114  RH  032%=      5-min Rain = 0
KSGV 120035Z 09002KT 04/M11 A3015 RMK A01 T00391114  RH  032%=      5-min Rain = 0
KSGV 120040Z 09003KT 04/M12 A3015 RMK A01 T00371116  RH  032%=      5-min Rain = 0
KSGV 120045Z 09003KT 03/M12 A3015 RMK A01 T00341115  RH  033%=      5-min Rain = 0
KSGV 120050Z 09003KT 03/M11 A3016 RMK A01 T00331112  RH  034%=      5-min Rain = 0
KSGV 120055Z 09004KT 03/M11 A3016 RMK A01 T00321113  RH  034%=      5-min Rain = 0
KSGV 120100Z 10004KT 03/M11 A3016 RMK A01 T00311113  RH  034%=      5-min Rain = 0
KSGV 120105Z 10003KT 03/M11 A3017 RMK A01 T00301114  RH  034%=      5-min Rain = 0
KSGV 120110Z 10004KT 03/M11 A3017 RMK A01 T00291114  RH  035%=      5-min Rain = 0
KSGV 120115Z 10004KT 03/M12 A3017 RMK A01 T00271115  RH  035%=      5-min Rain = 0
KSGV 120120Z 09004KT 03/M12 A3017 RMK A01 T00251116  RH  035%=      5-min Rain = 0
KSGV 120125Z 10003KT 02/M12 A3017 RMK A01 T00231116  RH  036%=      5-min Rain = 0
KSGV 120130Z 12004KT 02/M12 A3017 RMK A01 T00201118  RH  036%=      5-min Rain = 0
KSGV 120135Z 12004KT 02/M12 A3017 RMK A01 T00161120  RH  036%=      5-min Rain = 0
KSGV 120140Z 12003KT 02/M12 A3017 RMK A01 T00151117  RH  037%=      5-min Rain = 0
KSGV 120145Z 14004KT 01/M12 A3017 RMK A01 T00131115  RH  038%=      5-min Rain = 0
KSGV 120150Z 14005KT 01/M12 A3018 RMK A01 T00111116  RH  039%=      5-min Rain = 0
KSGV 120155Z 14006KT 01/M12 A3018 RMK A01 T00091117  RH  039%=      5-min Rain = 0
KSGV 120200Z 15006KT 01/M11 A3018 RMK A01 T00081114  RH  040%=      5-min Rain = 0
KSGV 120205Z 15005KT 01/M11 A3018 RMK A01 T00061112  RH  042%=      5-min Rain = 0
KSGV 120210Z 15005KT 00/M11 A3018 RMK A01 T00041111  RH  042%=      5-min Rain = 0
KSGV 120215Z 15005KT 00/M11 A3018 RMK A01 T00021110  RH  043%=      5-min Rain = 0
KSGV 120220Z 15005KT 00/M11 A3018 RMK A01 T00011110  RH  043%=      5-min Rain = 0
KSGV 120225Z 15005KT 00/M11 A3018 RMK A01 T00021110  RH  043%=      5-min Rain = 0
KSGV 120230Z 15003KT 00/M11 A3019 RMK A01 T00011111  RH  043%=      5-min Rain = 0
KSGV 120235Z 15004KT M00/M11 A3019 RMK A01 T10021113  RH  044%=      5-min Rain = 0
KSGV 120240Z 15004KT M00/M11 A3019 RMK A01 T10041113  RH  044%=      5-min Rain = 0
KSGV 120245Z 15004KT M01/M11 A3019 RMK A01 T10061112  RH  045%=      5-min Rain = 0
KSGV 120250Z 15004KT M01/M11 A3019 RMK A01 T10051112  RH  045%=      5-min Rain = 0
KSGV 120255Z 15004KT M00/M11 A3019 RMK A01 T10041112  RH  045%=      5-min Rain = 0
KSGV 120300Z 16004KT M01/M12 A3019 RMK A01 T10071115  RH  044%=      5-min Rain = 0
KSGV 120305Z 16004KT M01/M12 A302 RMK A01 T10121118  RH  045%=      5-min Rain = 0
KSGV 120310Z 16004KT M02/M12 A302 RMK A01 T10161118  RH  046%=      5-min Rain = 0
KSGV 120315Z 16005KT M02/M12 A3019 RMK A01 T10161117  RH  047%=      5-min Rain = 0
KSGV 120320Z 18003KT M02/M12 A302 RMK A01 T10171120  RH  046%=      5-min Rain = 0
KSGV 120325Z 19003KT M02/M12 A302 RMK A01 T10201124  RH  045%=      5-min Rain = 0
KSGV 120330Z 19003KT M02/M13 A302 RMK A01 T10241128  RH  046%=      5-min Rain = 0
KSGV 120335Z 19002KT M03/M13 A302 RMK A01 T10291126  RH  048%=      5-min Rain = 0
KSGV 120340Z 18002KT M03/M12 A302 RMK A01 T10301119  RH  051%=      5-min Rain = 0
KSGV 120345Z 17002KT M03/M12 A302 RMK A01 T10291120  RH  050%=      5-min Rain = 0
KSGV 120350Z 16002KT M03/M12 A302 RMK A01 T10311120  RH  051%=      5-min Rain = 0
KSGV 120355Z 17002KT M03/M12 A302 RMK A01 T10331119  RH  052%=      5-min Rain = 0
KSGV 120400Z 16002KT M03/M12 A302 RMK A01 T10321121  RH  051%=      5-min Rain = 0
KSGV 120405Z 15002KT M03/M12 A302 RMK A01 T10331121  RH  051%=      5-min Rain = 0
KSGV 120410Z 14001KT M03/M12 A302 RMK A01 T10321118  RH  052%=      5-min Rain = 0
KSGV 120415Z 15000KT M03/M12 A302 RMK A01 T10311116  RH  053%=      5-min Rain = 0
KSGV 120420Z 14000KT M03/M11 A302 RMK A01 T10291114  RH  053%=      5-min Rain = 0
KSGV 120425Z 14002KT M03/M11 A302 RMK A01 T10271108  RH  054%=      5-min Rain = 0
KSGV 120430Z 15003KT M03/M11 A302 RMK A01 T10281108  RH  055%=      5-min Rain = 0
KSGV 120435Z 15002KT M03/M12 A302 RMK A01 T10311116  RH  052%=      5-min Rain = 0
KSGV 120440Z 15002KT M04/M12 A302 RMK A01 T10391124  RH  052%=      5-min Rain = 0
KSGV 120445Z 15002KT M04/M13 A302 RMK A01 T10441131  RH  052%=      5-min Rain = 0
KSGV 120450Z 15002KT M05/M13 A302 RMK A01 T10471129  RH  053%=      5-min Rain = 0
KSGV 120455Z 15002KT M05/M13 A302 RMK A01 T10531129  RH  056%=      5-min Rain = 0
KSGV 120500Z 14002KT M05/M12 A302 RMK A01 T10541124  RH  059%=      5-min Rain = 0
KSGV 120505Z 14004KT M06/M12 A302 RMK A01 T10551123  RH  060%=      5-min Rain = 0
KSGV 120510Z 14004KT M05/M11 A302 RMK A01 T10471111  RH  061%=      5-min Rain = 0
KSGV 120515Z 14004KT M03/M11 A3021 RMK A01 T10271107  RH  055%=      5-min Rain = 0
KSGV 120520Z 14004KT M02/M11 A3021 RMK A01 T10191108  RH  051%=      5-min Rain = 0
KSGV 120525Z 14004KT M02/M11 A3021 RMK A01 T10181109  RH  051%=      5-min Rain = 0
KSGV 120530Z 14004KT M02/M11 A3021 RMK A01 T10181110  RH  050%=      5-min Rain = 0
KSGV 120535Z 15004KT M02/M11 A3021 RMK A01 T10181111  RH  050%=      5-min Rain = 0
KSGV 120540Z 15003KT M02/M11 A3021 RMK A01 T10191111  RH  050%=      5-min Rain = 0
KSGV 120545Z 16004KT M02/M11 A3022 RMK A01 T10191112  RH  050%=      5-min Rain = 0
KSGV 120550Z 15004KT M02/M11 A3022 RMK A01 T10191113  RH  049%=      5-min Rain = 0
KSGV 120555Z 15003KT M02/M11 A3022 RMK A01 T10221114  RH  050%=      5-min Rain = 0

Page generated in 0.2986 seconds.